createdAt,value
2022-11-15T00:00:57.466Z,23.20
2022-11-15T00:03:28.870Z,23.08
2022-11-15T00:05:55.842Z,22.65
2022-11-15T00:08:22.403Z,25.00
2022-11-15T00:11:00.249Z,19.52
2022-11-15T00:13:27.149Z,26.52
2022-11-15T00:15:53.864Z,25.55
2022-11-15T00:18:20.462Z,26.70
2022-11-15T00:20:47.055Z,21.85
2022-11-15T00:23:13.554Z,20.35
2022-11-15T00:25:40.271Z,23.73
2022-11-15T00:28:06.921Z,25.75
2022-11-15T00:30:33.795Z,24.48
2022-11-15T00:33:04.803Z,23.92
2022-11-15T00:35:35.333Z,26.55
2022-11-15T00:38:02.871Z,29.77
2022-11-15T00:40:29.718Z,27.25
2022-11-15T00:42:56.506Z,25.88
2022-11-15T00:45:23.368Z,29.55
2022-11-15T00:47:49.888Z,24.92
2022-11-15T00:50:16.606Z,26.75
2022-11-15T00:52:43.456Z,23.48
2022-11-15T00:55:17.629Z,30.67
2022-11-15T00:57:44.275Z,25.75
2022-11-15T01:00:11.564Z,28.98
2022-11-15T01:05:05.332Z,25.02
2022-11-15T01:07:31.928Z,26.10
2022-11-15T01:09:58.481Z,19.52
2022-11-15T01:12:24.999Z,18.83
2022-11-15T01:14:51.510Z,27.27
2022-11-15T01:17:18.066Z,34.40
2022-11-15T01:19:44.822Z,17.42
2022-11-15T01:22:11.374Z,28.27
2022-11-15T01:24:37.951Z,30.73
2022-11-15T01:27:04.522Z,29.13
2022-11-15T01:29:31.031Z,27.58
2022-11-15T01:31:57.498Z,27.67
2022-11-15T01:34:24.009Z,34.73
2022-11-15T01:36:50.627Z,30.75
2022-11-15T01:39:17.789Z,31.27
2022-11-15T01:41:44.878Z,29.88
2022-11-15T01:44:29.430Z,30.02
2022-11-15T01:46:55.985Z,30.85
2022-11-15T01:49:24.670Z,33.10
2022-11-15T01:51:51.602Z,29.95
2022-11-15T01:54:21.927Z,35.30
2022-11-15T01:56:53.081Z,30.15
2022-11-15T01:59:20.568Z,35.88
2022-11-15T02:01:47.420Z,38.58
2022-11-15T02:04:29.536Z,42.30
2022-11-15T02:06:56.107Z,31.38
2022-11-15T02:09:22.657Z,32.78
2022-11-15T02:11:51.518Z,28.33
2022-11-15T02:14:21.002Z,28.05
2022-11-15T02:16:47.484Z,27.85
2022-11-15T02:19:32.453Z,28.35
2022-11-15T02:22:17.772Z,29.67
2022-11-15T02:25:11.059Z,31.40
2022-11-15T02:27:40.405Z,35.50
2022-11-15T02:30:37.398Z,32.63
2022-11-15T02:33:28.230Z,30.98
2022-11-15T02:36:01.983Z,26.45
2022-11-15T02:38:51.561Z,28.27
2022-11-15T02:41:25.055Z,28.23
2022-11-15T02:44:05.949Z,30.13
2022-11-15T02:47:11.722Z,43.63
2022-11-15T02:49:38.719Z,39.70
2022-11-15T02:52:05.415Z,31.23
2022-11-15T02:54:33.766Z,37.63
2022-11-15T02:57:08.194Z,32.95
2022-11-15T02:59:53.385Z,34.08
2022-11-15T03:02:38.715Z,26.58
2022-11-15T03:05:26.290Z,32.15
2022-11-15T03:08:04.704Z,25.70
2022-11-15T03:10:38.538Z,25.85
2022-11-15T03:13:14.252Z,31.00
2022-11-15T03:16:22.494Z,33.40
2022-11-15T03:18:57.866Z,30.50
2022-11-15T03:21:26.097Z,40.22
2022-11-15T03:23:56.183Z,33.72
2022-11-15T03:26:25.731Z,34.45
2022-11-15T03:28:58.701Z,33.67
2022-11-15T03:31:50.530Z,33.17
2022-11-15T03:34:47.026Z,34.85
2022-11-15T03:37:16.456Z,37.65
2022-11-15T03:39:44.284Z,33.30
2022-11-15T03:42:32.544Z,27.40
2022-11-15T03:45:13.201Z,29.00
2022-11-15T03:47:59.876Z,28.35
2022-11-15T03:50:27.668Z,30.98
2022-11-15T03:52:56.012Z,32.22
2022-11-15T03:55:22.925Z,30.52
2022-11-15T03:57:54.103Z,32.35
2022-11-15T04:00:20.702Z,31.10
2022-11-15T04:02:47.238Z,33.55
2022-11-15T04:05:13.774Z,28.75
2022-11-15T04:07:40.405Z,22.15
2022-11-15T04:10:07.896Z,28.80
2022-11-15T04:12:37.056Z,28.85
2022-11-15T04:15:09.285Z,29.63
2022-11-15T04:17:40.095Z,36.80
2022-11-15T04:20:40.539Z,38.15
2022-11-15T04:23:34.330Z,35.85
2022-11-15T04:26:05.409Z,40.17
2022-11-15T04:28:32.075Z,39.97
2022-11-15T04:30:58.563Z,35.55
2022-11-15T04:33:25.107Z,44.50
2022-11-15T04:36:10.183Z,42.58
2022-11-15T04:38:38.369Z,42.40
2022-11-15T04:41:05.039Z,42.70
2022-11-15T04:43:32.154Z,40.58
2022-11-15T04:45:58.987Z,66.85
2022-11-15T04:48:25.517Z,124.65
2022-11-15T04:50:52.021Z,89.13
2022-11-15T04:53:18.540Z,140.80
2022-11-15T04:55:47.937Z,132.20
2022-11-15T04:58:14.573Z,160.70
2022-11-15T05:00:41.225Z,56.85
2022-11-15T05:03:28.372Z,77.68
2022-11-15T05:05:55.338Z,57.83
2022-11-15T05:08:21.906Z,51.30
2022-11-15T05:10:48.840Z,60.40
2022-11-15T05:13:15.408Z,57.05
2022-11-15T05:15:41.943Z,45.42
2022-11-15T05:18:08.529Z,35.45
2022-11-15T05:20:35.080Z,49.95
2022-11-15T05:23:01.595Z,42.15
2022-11-15T05:25:28.304Z,47.28
2022-11-15T05:27:55.086Z,36.03
2022-11-15T05:30:21.594Z,46.20
2022-11-15T05:32:48.709Z,40.60
2022-11-15T05:35:33.525Z,63.22
2022-11-15T05:38:00.183Z,64.07
2022-11-15T05:40:28.567Z,75.32
2022-11-15T05:42:55.240Z,79.15
2022-11-15T05:45:26.761Z,84.97
2022-11-15T05:47:57.923Z,92.45
2022-11-15T05:50:24.719Z,50.50
2022-11-15T05:52:52.407Z,41.65
2022-11-15T05:55:19.141Z,45.92
2022-11-15T05:57:45.983Z,61.00
2022-11-15T06:00:13.342Z,52.78
2022-11-15T06:05:06.548Z,38.78
2022-11-15T06:07:33.192Z,42.47
2022-11-15T06:10:00.048Z,24.75
2022-11-15T06:12:26.610Z,32.83
2022-11-15T06:14:53.107Z,33.92
2022-11-15T06:17:19.604Z,35.57
2022-11-15T06:19:46.138Z,30.17
2022-11-15T06:22:12.664Z,25.95
2022-11-15T06:24:39.211Z,30.90
2022-11-15T06:27:05.784Z,33.40
2022-11-15T06:29:32.267Z,30.20
2022-11-15T06:31:58.777Z,37.07
2022-11-15T06:34:25.524Z,27.17
2022-11-15T06:36:52.081Z,19.50
2022-11-15T06:39:18.603Z,18.67
2022-11-15T06:41:45.156Z,31.55
2022-11-15T06:44:11.699Z,32.00
2022-11-15T06:46:38.252Z,40.90
2022-11-15T06:49:09.357Z,34.10
2022-11-15T06:51:36.470Z,27.05
2022-11-15T06:54:03.152Z,28.63
2022-11-15T06:56:29.723Z,26.05
2022-11-15T06:58:56.727Z,26.67
2022-11-15T07:01:23.490Z,25.80
2022-11-15T07:03:50.044Z,29.65
2022-11-15T07:06:16.611Z,31.73
2022-11-15T07:08:44.260Z,33.42
2022-11-15T07:11:10.783Z,30.73
2022-11-15T07:13:38.350Z,45.30
2022-11-15T07:16:07.049Z,41.63
2022-11-15T07:18:37.863Z,48.38
2022-11-15T07:21:05.673Z,46.83
2022-11-15T07:23:33.364Z,44.78
2022-11-15T07:26:01.117Z,41.90
2022-11-15T07:28:28.288Z,49.00
2022-11-15T07:30:55.696Z,44.13
2022-11-15T07:33:22.677Z,44.85
2022-11-15T07:35:52.118Z,42.25
2022-11-15T07:38:21.531Z,41.50
2022-11-15T07:40:48.588Z,33.00
2022-11-15T07:43:15.209Z,40.33
2022-11-15T07:45:46.341Z,37.88
2022-11-15T07:48:12.845Z,37.45
2022-11-15T07:50:42.659Z,40.87
2022-11-15T07:53:10.524Z,47.67
2022-11-15T07:55:37.480Z,45.00
2022-11-15T07:58:06.176Z,41.22
2022-11-15T08:00:33.913Z,45.20
2022-11-15T08:03:12.023Z,46.58
2022-11-15T08:05:40.282Z,44.13
2022-11-15T08:08:08.354Z,44.00
2022-11-15T08:10:40.296Z,45.70
2022-11-15T08:13:12.046Z,45.25
2022-11-15T08:15:39.299Z,61.67
2022-11-15T08:18:16.512Z,45.75
2022-11-15T08:25:38.090Z,49.60
2022-11-15T08:28:06.902Z,42.83
2022-11-15T08:30:43.097Z,43.00
2022-11-15T08:33:14.325Z,44.00
2022-11-15T08:35:42.188Z,40.42
2022-11-15T08:38:09.423Z,40.83
2022-11-15T08:40:36.918Z,43.08
2022-11-15T08:45:31.186Z,42.15
2022-11-15T08:47:57.796Z,39.20
2022-11-15T08:50:24.455Z,47.53
2022-11-15T08:52:51.080Z,41.22
2022-11-15T08:55:17.902Z,41.47
2022-11-15T08:57:44.725Z,47.22
2022-11-15T09:00:12.847Z,47.63
2022-11-15T09:02:40.237Z,53.60
2022-11-15T09:07:33.952Z,48.92
2022-11-15T09:10:01.088Z,54.67
2022-11-15T09:12:27.602Z,46.92
2022-11-15T09:14:54.193Z,49.77
2022-11-15T09:17:24.745Z,47.53
2022-11-15T09:19:51.921Z,55.40
2022-11-15T09:22:18.873Z,54.88
2022-11-15T09:24:45.538Z,46.70
2022-11-15T09:29:56.472Z,44.00
2022-11-15T09:32:26.025Z,45.92
2022-11-15T09:34:52.660Z,40.85
2022-11-15T09:37:19.169Z,41.72
2022-11-15T09:39:45.682Z,40.97
2022-11-15T09:42:41.499Z,42.60
2022-11-15T09:45:16.896Z,36.85
2022-11-15T09:48:04.652Z,36.03
2022-11-15T09:50:47.956Z,32.67
2022-11-15T09:53:50.765Z,34.25
2022-11-15T09:56:31.874Z,33.53
2022-11-15T09:59:07.199Z,30.55
2022-11-15T10:01:55.810Z,43.55
2022-11-15T10:04:24.791Z,34.22
2022-11-15T10:07:05.371Z,31.52
2022-11-15T10:09:50.267Z,34.65
2022-11-15T10:12:17.453Z,33.58
2022-11-15T10:14:50.305Z,31.35
2022-11-15T10:17:28.762Z,31.33
2022-11-15T10:20:20.030Z,34.20
2022-11-15T10:23:01.166Z,36.08
2022-11-15T10:25:33.210Z,36.50
2022-11-15T10:28:17.476Z,30.20
2022-11-15T10:30:50.605Z,30.35
2022-11-15T10:33:37.896Z,31.27
2022-11-15T10:36:10.636Z,29.05
2022-11-15T10:38:49.201Z,33.67
2022-11-15T10:41:18.265Z,31.20
2022-11-15T10:43:45.762Z,29.35
2022-11-15T10:49:17.862Z,30.42
2022-11-15T10:54:44.663Z,27.50
2022-11-15T10:57:17.586Z,31.15
2022-11-15T10:59:50.864Z,31.08
2022-11-15T11:02:36.963Z,27.90
2022-11-15T11:05:06.786Z,31.55
2022-11-15T11:07:35.738Z,31.17
2022-11-15T11:10:49.191Z,29.67
2022-11-15T11:13:30.297Z,29.38
2022-11-15T11:15:56.748Z,27.83
2022-11-15T11:18:33.445Z,26.83
2022-11-15T11:21:07.919Z,28.23
2022-11-15T11:23:55.472Z,27.23
2022-11-15T11:26:41.971Z,28.95
2022-11-15T11:29:33.038Z,25.75
2022-11-15T11:32:20.647Z,27.17
2022-11-15T11:35:04.415Z,28.42
2022-11-15T11:38:07.810Z,27.33
2022-11-15T11:40:59.079Z,25.48
2022-11-15T11:43:40.765Z,29.20
2022-11-15T11:46:25.422Z,24.95
2022-11-15T11:49:05.138Z,27.83
2022-11-15T11:51:40.878Z,26.45
2022-11-15T11:54:29.307Z,27.98
2022-11-15T11:56:56.674Z,28.70
2022-11-15T12:02:23.798Z,26.23
2022-11-15T12:04:56.185Z,28.85
2022-11-15T12:07:28.864Z,23.95
2022-11-15T12:10:02.540Z,27.05
2022-11-15T12:12:43.226Z,24.25
2022-11-15T12:15:09.749Z,30.23
2022-11-15T12:17:38.059Z,27.53
2022-11-15T12:20:15.764Z,26.67
2022-11-15T12:22:48.427Z,31.25
2022-11-15T12:25:30.465Z,26.98
2022-11-15T12:28:02.755Z,23.00
2022-11-15T12:30:52.757Z,24.30
2022-11-15T12:33:31.222Z,22.17
2022-11-15T12:36:22.360Z,20.90
2022-11-15T12:38:48.950Z,26.13
2022-11-15T12:41:20.366Z,26.43
2022-11-15T12:43:49.543Z,23.65
2022-11-15T12:46:22.501Z,23.13
2022-11-15T12:48:52.698Z,23.02
2022-11-15T12:51:23.149Z,27.23
2022-11-15T12:53:49.716Z,24.52
2022-11-15T12:56:16.150Z,23.93
2022-11-15T12:59:06.245Z,22.73
2022-11-15T13:01:36.146Z,20.60
2022-11-15T13:04:29.648Z,26.65
2022-11-15T13:06:59.692Z,21.17
2022-11-15T13:09:35.217Z,20.15
2022-11-15T13:12:15.874Z,22.13
2022-11-15T13:15:00.008Z,23.45
2022-11-15T13:17:40.677Z,24.88
2022-11-15T13:20:07.155Z,20.95
2022-11-15T13:23:00.246Z,22.50
2022-11-15T13:25:45.188Z,19.83
2022-11-15T13:28:37.824Z,26.30
2022-11-15T13:31:28.432Z,23.67
2022-11-15T13:33:59.136Z,24.67
2022-11-15T13:36:29.795Z,22.70
2022-11-15T13:38:58.407Z,21.52
2022-11-15T13:41:27.967Z,30.13
2022-11-15T13:43:56.150Z,27.35
2022-11-15T13:46:34.042Z,33.40
2022-11-15T13:49:06.890Z,33.95
2022-11-15T13:51:53.249Z,32.85
2022-11-15T13:54:28.262Z,33.03
2022-11-15T13:56:59.730Z,43.30
2022-11-15T13:59:29.177Z,35.80
2022-11-15T14:02:00.449Z,38.20
2022-11-15T14:04:30.824Z,28.08
2022-11-15T14:06:59.735Z,28.83
2022-11-15T14:09:38.030Z,31.38
2022-11-15T14:12:24.600Z,31.45
2022-11-15T14:14:51.292Z,28.65
2022-11-15T14:17:31.504Z,34.42
2022-11-15T14:19:59.079Z,62.30
2022-11-15T14:22:27.063Z,83.80
2022-11-15T14:25:17.651Z,76.25
2022-11-15T14:27:46.260Z,37.53
2022-11-15T14:30:18.795Z,43.50
2022-11-15T14:32:48.715Z,49.35
2022-11-15T14:35:19.236Z,60.92
2022-11-15T14:37:46.542Z,73.50
2022-11-15T14:40:15.988Z,57.65
2022-11-15T14:42:43.519Z,53.97
2022-11-15T14:45:17.507Z,49.78
2022-11-15T14:47:44.765Z,64.70
2022-11-15T14:50:20.297Z,68.53
2022-11-15T14:52:48.143Z,85.63
2022-11-15T14:55:28.596Z,76.57
2022-11-15T14:57:56.302Z,74.43
2022-11-15T15:00:23.460Z,77.68
2022-11-15T15:02:53.639Z,60.80
2022-11-15T15:05:31.479Z,66.00
2022-11-15T15:07:58.370Z,56.67
2022-11-15T15:10:40.128Z,56.28
2022-11-15T15:13:32.084Z,48.70
2022-11-15T15:15:58.646Z,64.38
2022-11-15T15:18:25.185Z,51.67
2022-11-15T15:21:01.074Z,95.20
2022-11-15T15:23:30.252Z,75.63
2022-11-15T15:25:56.971Z,77.63
2022-11-15T15:28:23.637Z,76.63
2022-11-15T15:30:50.792Z,63.42
2022-11-15T15:33:17.457Z,54.60
2022-11-15T15:35:45.115Z,47.30
2022-11-15T15:38:16.400Z,49.70
2022-11-15T15:40:43.050Z,56.15
2022-11-15T15:43:10.242Z,46.17
2022-11-15T15:45:41.275Z,41.15
2022-11-15T15:48:13.718Z,41.30
2022-11-15T15:50:40.660Z,36.25
2022-11-15T15:53:09.094Z,75.22
2022-11-15T15:55:35.961Z,59.33
2022-11-15T15:58:02.514Z,47.95
2022-11-15T16:00:29.600Z,43.20
2022-11-15T16:02:56.369Z,43.80
2022-11-15T16:05:23.412Z,35.40
2022-11-15T16:07:50.119Z,32.10
2022-11-15T16:10:19.628Z,33.03
2022-11-15T16:12:47.518Z,35.67
2022-11-15T16:15:14.093Z,31.85
2022-11-15T16:17:49.419Z,36.90
2022-11-15T16:20:24.300Z,29.95
2022-11-15T16:22:50.881Z,31.60
2022-11-15T16:25:17.414Z,29.80
2022-11-15T16:27:45.982Z,35.30
2022-11-15T16:30:17.841Z,40.72
2022-11-15T16:32:44.642Z,42.03
2022-11-15T16:35:16.423Z,43.80
2022-11-15T16:37:44.970Z,48.90
2022-11-15T16:40:25.999Z,50.47
2022-11-15T16:42:52.572Z,41.72
2022-11-15T16:45:19.184Z,41.57
2022-11-15T16:47:45.711Z,39.00
2022-11-15T16:50:27.688Z,38.37
2022-11-15T16:52:56.134Z,41.78
2022-11-15T16:55:25.575Z,37.85
2022-11-15T16:57:52.632Z,34.25
2022-11-15T17:00:20.500Z,34.72
2022-11-15T17:02:49.107Z,37.25
2022-11-15T17:05:20.261Z,48.08
2022-11-15T17:07:54.184Z,55.33
2022-11-15T17:10:23.353Z,52.47
2022-11-15T17:12:50.513Z,42.40
2022-11-15T17:15:17.302Z,33.30
2022-11-15T17:17:44.941Z,31.45
2022-11-15T17:20:15.725Z,32.78
2022-11-15T17:22:42.449Z,31.48
2022-11-15T17:25:09.749Z,36.55
2022-11-15T17:27:36.490Z,36.75
2022-11-15T17:30:03.597Z,57.67
2022-11-15T17:32:30.086Z,34.05
2022-11-15T17:34:56.583Z,33.00
2022-11-15T17:37:23.230Z,61.30
2022-11-15T17:39:49.792Z,38.28
2022-11-15T17:42:16.358Z,41.37
2022-11-15T17:44:42.921Z,43.80
2022-11-15T17:47:09.459Z,40.13
2022-11-15T17:49:39.458Z,44.47
2022-11-15T17:52:06.283Z,37.75
2022-11-15T17:54:32.896Z,39.05
2022-11-15T17:56:59.450Z,44.75
2022-11-15T17:59:26.045Z,62.13
2022-11-15T18:01:54.065Z,50.88
2022-11-15T18:04:21.130Z,40.72
2022-11-15T18:06:47.781Z,40.53
2022-11-15T18:09:14.371Z,38.35
2022-11-15T18:11:43.185Z,38.93
2022-11-15T18:14:15.648Z,40.88
2022-11-15T18:16:42.802Z,35.72
2022-11-15T18:19:13.248Z,34.78
2022-11-15T18:21:57.294Z,32.35
2022-11-15T18:24:29.792Z,36.72
2022-11-15T18:26:57.255Z,32.10
2022-11-15T18:31:55.809Z,33.42
2022-11-15T18:34:23.989Z,33.92
2022-11-15T18:36:53.923Z,35.22
2022-11-15T18:39:20.773Z,33.95
2022-11-15T18:41:47.989Z,34.80
2022-11-15T18:44:15.364Z,38.20
2022-11-15T18:46:42.978Z,41.03
2022-11-15T18:49:10.872Z,47.38
2022-11-15T18:51:37.993Z,65.50
2022-11-15T18:54:04.892Z,64.15
2022-11-15T18:56:32.645Z,56.83
2022-11-15T18:59:02.037Z,56.95
2022-11-15T19:01:33.871Z,57.17
2022-11-15T19:04:11.621Z,48.13
2022-11-15T19:06:40.774Z,43.65
2022-11-15T19:09:08.661Z,37.35
2022-11-15T19:11:39.356Z,34.00
2022-11-15T19:14:08.561Z,29.75
2022-11-15T19:16:38.127Z,29.60
2022-11-15T19:19:07.275Z,36.97
2022-11-15T19:21:34.614Z,32.38
2022-11-15T19:24:01.553Z,31.05
2022-11-15T19:26:29.447Z,32.47
2022-11-15T19:28:58.480Z,33.65
2022-11-15T19:31:26.509Z,36.85
2022-11-15T19:33:53.943Z,31.75
2022-11-15T19:38:48.887Z,34.45
2022-11-15T19:41:20.688Z,34.90
2022-11-15T19:43:48.176Z,35.55
2022-11-15T19:46:15.432Z,32.42
2022-11-15T19:48:42.076Z,31.15
2022-11-15T19:51:12.093Z,31.27
2022-11-15T19:53:39.288Z,34.92
2022-11-15T19:56:08.351Z,33.47
2022-11-15T19:58:34.988Z,36.92
2022-11-15T20:01:05.719Z,33.25
2022-11-15T20:03:33.629Z,41.30
2022-11-15T20:06:05.153Z,35.35
2022-11-15T20:08:32.505Z,35.47
2022-11-15T20:11:00.109Z,35.25
2022-11-15T20:18:21.619Z,39.35
2022-11-15T20:20:48.750Z,39.72
2022-11-15T20:23:15.729Z,44.08
2022-11-15T20:25:46.576Z,43.28
2022-11-15T20:28:31.358Z,50.97
2022-11-15T20:31:00.231Z,55.65
2022-11-15T20:33:27.698Z,57.67
2022-11-15T20:38:21.819Z,46.55
2022-11-15T20:40:49.928Z,50.28
2022-11-15T20:43:19.210Z,52.65
2022-11-15T20:45:47.660Z,42.25
2022-11-15T20:48:14.947Z,43.25
2022-11-15T20:50:43.846Z,39.08
2022-11-15T20:53:13.851Z,37.85
2022-11-15T20:55:41.693Z,39.65
2022-11-15T20:58:09.733Z,35.00
2022-11-15T21:00:37.355Z,36.70
2022-11-15T21:03:06.992Z,38.03
2022-11-15T21:05:41.887Z,39.17
2022-11-15T21:08:09.761Z,38.30
2022-11-15T21:10:55.528Z,37.53
2022-11-15T21:13:22.658Z,39.05
2022-11-15T21:15:49.329Z,40.65
2022-11-15T21:18:16.369Z,42.70
2022-11-15T21:20:43.282Z,44.83
2022-11-15T21:23:10.243Z,35.35
2022-11-15T21:25:36.718Z,60.97
2022-11-15T21:28:03.494Z,62.03
2022-11-15T21:30:30.385Z,58.90
2022-11-15T21:32:56.979Z,56.60
2022-11-15T21:35:23.905Z,53.40
2022-11-15T21:37:56.110Z,53.00
2022-11-15T21:40:23.817Z,57.15
2022-11-15T21:42:50.654Z,57.20
2022-11-15T21:45:17.233Z,55.00
2022-11-15T21:47:46.392Z,54.37
2022-11-15T21:50:13.865Z,53.10
2022-11-15T21:52:40.827Z,51.72
2022-11-15T21:55:08.239Z,58.67
2022-11-15T21:57:34.849Z,54.88
2022-11-15T22:00:20.003Z,64.43
2022-11-15T22:02:46.554Z,65.85
2022-11-15T22:05:13.129Z,65.10
2022-11-15T22:07:39.747Z,62.47
2022-11-15T22:10:07.047Z,46.13
2022-11-15T22:12:33.577Z,62.55
2022-11-15T22:15:00.216Z,66.03
2022-11-15T22:17:46.813Z,62.40
2022-11-15T22:20:37.801Z,62.70
2022-11-15T22:23:00.233Z,63.88
2022-11-15T22:25:26.870Z,66.32
2022-11-15T22:27:53.946Z,67.63
2022-11-15T22:30:21.232Z,62.72
2022-11-15T22:32:47.899Z,71.97
2022-11-15T22:35:14.586Z,62.60
2022-11-15T22:37:41.327Z,67.70
2022-11-15T22:40:08.533Z,74.80
2022-11-15T22:42:35.135Z,77.78
2022-11-15T22:45:01.710Z,71.70
2022-11-15T22:47:28.238Z,61.17
2022-11-15T22:49:54.789Z,68.30
2022-11-15T22:52:21.406Z,71.73
2022-11-15T22:54:48.048Z,69.25
2022-11-15T22:57:14.656Z,68.53
2022-11-15T22:59:42.469Z,60.22
2022-11-15T23:02:09.119Z,63.05
2022-11-15T23:04:35.876Z,67.40
2022-11-15T23:07:02.468Z,62.80
2022-11-15T23:09:29.062Z,63.65
2022-11-15T23:12:14.162Z,69.75
2022-11-15T23:14:40.809Z,67.35
2022-11-15T23:17:07.368Z,62.05
2022-11-15T23:19:33.975Z,68.15
2022-11-15T23:22:19.251Z,68.40
2022-11-15T23:24:45.809Z,64.78
2022-11-15T23:27:15.380Z,67.13
2022-11-15T23:30:00.955Z,62.38
2022-11-15T23:32:45.763Z,68.10
2022-11-15T23:35:12.569Z,69.20
2022-11-15T23:37:39.285Z,60.20
2022-11-15T23:40:06.791Z,61.30
2022-11-15T23:42:33.387Z,63.08
2022-11-15T23:44:59.950Z,58.25
2022-11-15T23:47:26.498Z,58.83
2022-11-15T23:49:53.050Z,62.30
2022-11-15T23:52:19.679Z,66.82
2022-11-15T23:54:46.240Z,70.20
2022-11-15T23:57:12.940Z,61.47
2022-11-15T23:59:45.853Z,58.88
